createdAt,value
2023-04-16T00:02:08.947Z,39.43
2023-04-16T00:04:37.169Z,46.10
2023-04-16T00:07:07.627Z,46.40
2023-04-16T00:09:37.193Z,44.80
2023-04-16T00:12:06.131Z,40.93
2023-04-16T00:14:34.246Z,48.80
2023-04-16T00:17:02.422Z,43.07
2023-04-16T00:19:30.630Z,43.03
2023-04-16T00:21:58.831Z,48.63
2023-04-16T00:24:26.895Z,45.33
2023-04-16T00:26:58.649Z,48.27
2023-04-16T00:29:31.052Z,46.17
2023-04-16T00:31:59.215Z,49.87
2023-04-16T00:34:29.673Z,48.60
2023-04-16T00:36:57.813Z,45.20
2023-04-16T00:39:25.984Z,44.57
2023-04-16T00:41:58.046Z,52.87
2023-04-16T00:44:26.255Z,40.07
2023-04-16T00:46:57.563Z,45.10
2023-04-16T00:49:25.975Z,43.80
2023-04-16T00:51:54.184Z,41.40
2023-04-16T00:54:22.661Z,42.13
2023-04-16T00:56:52.084Z,48.27
2023-04-16T00:59:22.427Z,44.07
2023-04-16T01:01:52.793Z,43.07
2023-04-16T01:04:21.415Z,45.33
2023-04-16T01:06:52.166Z,46.30
2023-04-16T01:09:20.483Z,51.00
2023-04-16T01:11:50.951Z,37.93
2023-04-16T01:14:19.064Z,41.27
2023-04-16T01:16:48.627Z,46.33
2023-04-16T01:19:16.761Z,39.00
2023-04-16T01:21:46.706Z,34.57
2023-04-16T01:24:14.798Z,38.30
2023-04-16T01:26:44.928Z,35.53
2023-04-16T01:29:15.292Z,38.30
2023-04-16T01:31:43.542Z,37.13
2023-04-16T01:34:29.307Z,35.43
2023-04-16T01:36:58.760Z,38.63
2023-04-16T01:39:27.208Z,40.60
2023-04-16T01:41:58.571Z,46.87
2023-04-16T01:44:26.656Z,43.50
2023-04-16T01:46:54.858Z,40.00
2023-04-16T01:49:25.540Z,52.57
2023-04-16T01:51:53.699Z,42.37
2023-04-16T01:54:25.620Z,35.30
2023-04-16T01:56:55.846Z,40.07
2023-04-16T01:59:24.356Z,44.67
2023-04-16T02:01:52.516Z,34.77
2023-04-16T02:04:23.258Z,39.47
2023-04-16T02:06:51.424Z,39.73
2023-04-16T02:09:19.547Z,36.30
2023-04-16T02:11:49.006Z,37.90
2023-04-16T02:14:17.166Z,38.23
2023-04-16T02:16:48.237Z,36.43
2023-04-16T02:19:34.728Z,39.93
2023-04-16T02:22:05.476Z,42.27
2023-04-16T02:24:35.640Z,39.00
2023-04-16T02:27:09.465Z,39.43
2023-04-16T02:29:37.581Z,39.17
2023-04-16T02:32:12.761Z,36.97
2023-04-16T02:34:45.624Z,39.03
2023-04-16T02:37:17.348Z,37.77
2023-04-16T02:39:47.357Z,42.27
2023-04-16T02:42:17.185Z,34.63
2023-04-16T02:44:47.317Z,46.77
2023-04-16T02:47:17.531Z,35.83
2023-04-16T02:49:47.871Z,40.97
2023-04-16T02:52:18.101Z,40.23
2023-04-16T02:54:48.932Z,40.10
2023-04-16T02:57:18.387Z,38.07
2023-04-16T02:59:46.423Z,38.87
2023-04-16T03:02:14.553Z,34.37
2023-04-16T03:04:45.559Z,38.60
2023-04-16T03:07:13.774Z,35.60
2023-04-16T03:09:41.919Z,35.33
2023-04-16T03:12:10.072Z,41.73
2023-04-16T03:14:41.647Z,36.20
2023-04-16T03:17:09.753Z,35.90
2023-04-16T03:19:39.979Z,41.47
2023-04-16T03:22:08.071Z,36.33
2023-04-16T03:24:36.276Z,42.03
2023-04-16T03:27:04.412Z,38.40
2023-04-16T03:29:37.908Z,38.73
2023-04-16T03:32:12.521Z,42.20
2023-04-16T03:34:40.825Z,40.33
2023-04-16T03:37:12.206Z,40.10
2023-04-16T03:39:42.590Z,38.37
2023-04-16T03:42:12.347Z,43.43
2023-04-16T03:44:42.600Z,41.83
2023-04-16T03:47:14.403Z,38.60
2023-04-16T03:49:42.584Z,42.07
2023-04-16T03:52:11.263Z,38.23
2023-04-16T03:54:39.542Z,39.40
2023-04-16T03:57:19.965Z,38.43
2023-04-16T03:59:50.287Z,33.77
2023-04-16T04:02:22.024Z,33.27
2023-04-16T04:04:50.326Z,42.73
2023-04-16T04:07:19.076Z,39.00
2023-04-16T04:09:49.385Z,37.40
2023-04-16T04:12:17.533Z,43.97
2023-04-16T04:14:48.770Z,38.50
2023-04-16T04:17:16.840Z,40.23
2023-04-16T04:20:00.102Z,38.90
2023-04-16T04:22:30.719Z,36.07
2023-04-16T04:25:01.638Z,34.93
2023-04-16T04:27:32.651Z,39.87
2023-04-16T04:30:04.320Z,39.40
2023-04-16T04:32:32.822Z,39.60
2023-04-16T04:35:03.972Z,34.13
2023-04-16T04:37:32.090Z,34.27
2023-04-16T04:40:00.494Z,34.80
2023-04-16T04:42:28.831Z,33.80
2023-04-16T04:44:57.105Z,35.70
2023-04-16T04:47:25.519Z,40.23
2023-04-16T04:49:54.682Z,39.03
2023-04-16T04:52:24.240Z,40.97
2023-04-16T04:54:52.516Z,37.43
2023-04-16T04:57:21.157Z,37.90
2023-04-16T04:59:53.051Z,39.83
2023-04-16T05:02:21.552Z,42.50
2023-04-16T05:04:49.824Z,36.13
2023-04-16T05:07:20.356Z,41.37
2023-04-16T05:09:49.764Z,38.10
2023-04-16T05:12:17.993Z,38.47
2023-04-16T05:14:48.373Z,38.20
2023-04-16T05:17:18.538Z,36.77
2023-04-16T05:19:49.312Z,33.43
2023-04-16T05:22:18.913Z,36.87
2023-04-16T05:24:51.033Z,35.17
2023-04-16T05:27:19.113Z,41.07
2023-04-16T05:29:47.261Z,39.83
2023-04-16T05:32:15.615Z,37.70
2023-04-16T05:34:46.415Z,38.83
2023-04-16T05:37:14.542Z,40.53
2023-04-16T05:39:42.640Z,35.67
2023-04-16T05:42:12.114Z,36.87
2023-04-16T05:44:42.486Z,38.47
2023-04-16T05:47:12.770Z,36.73
2023-04-16T05:49:40.926Z,37.70
2023-04-16T05:52:09.110Z,38.70
2023-04-16T05:54:37.248Z,38.90
2023-04-16T05:57:05.486Z,42.47
2023-04-16T05:59:35.121Z,33.97
2023-04-16T06:02:03.326Z,39.20
2023-04-16T06:04:31.654Z,35.90
2023-04-16T06:06:59.777Z,38.63
2023-04-16T06:09:28.250Z,35.50
2023-04-16T06:11:58.580Z,36.80
2023-04-16T06:14:26.827Z,41.70
2023-04-16T06:16:56.349Z,40.47
2023-04-16T06:19:24.515Z,38.63
2023-04-16T06:21:52.662Z,37.43
2023-04-16T06:24:23.116Z,39.47
2023-04-16T06:26:51.253Z,36.27
2023-04-16T06:29:22.515Z,34.67
2023-04-16T06:31:57.471Z,36.90
2023-04-16T06:34:25.658Z,37.87
2023-04-16T06:36:53.808Z,37.20
2023-04-16T06:39:24.288Z,36.17
2023-04-16T06:41:52.436Z,34.23
2023-04-16T06:44:20.640Z,38.07
2023-04-16T06:46:48.851Z,34.73
2023-04-16T06:49:18.467Z,38.73
2023-04-16T06:51:46.691Z,36.90
2023-04-16T06:54:14.887Z,36.07
2023-04-16T06:56:45.173Z,36.73
2023-04-16T06:59:13.302Z,38.20
2023-04-16T07:01:41.514Z,38.90
2023-04-16T07:04:10.917Z,40.27
2023-04-16T07:06:40.683Z,37.33
2023-04-16T07:09:09.017Z,32.57
2023-04-16T07:11:37.575Z,38.45
2023-04-16T07:14:06.063Z,32.53
2023-04-16T07:16:37.672Z,37.50
2023-04-16T07:19:06.073Z,36.20
2023-04-16T07:21:34.370Z,33.40
2023-04-16T07:24:03.970Z,37.77
2023-04-16T07:26:32.123Z,32.13
2023-04-16T07:29:02.764Z,31.43
2023-04-16T07:31:33.546Z,32.60
2023-04-16T07:34:01.722Z,29.77
2023-04-16T07:36:32.261Z,31.03
2023-04-16T07:39:00.539Z,32.93
2023-04-16T07:41:30.458Z,31.37
2023-04-16T07:43:58.929Z,30.20
2023-04-16T07:46:30.716Z,28.50
2023-04-16T07:49:07.932Z,30.67
2023-04-16T07:51:36.473Z,30.43
2023-04-16T07:54:04.719Z,31.33
2023-04-16T07:56:34.177Z,31.77
2023-04-16T07:59:14.399Z,29.80
2023-04-16T08:01:47.201Z,27.87
2023-04-16T08:04:23.023Z,31.23
2023-04-16T08:06:51.615Z,29.73
2023-04-16T08:09:20.579Z,29.50
2023-04-16T08:11:50.797Z,28.67
2023-04-16T08:14:19.051Z,28.53
2023-04-16T08:16:47.330Z,27.90
2023-04-16T08:19:15.596Z,30.47
2023-04-16T08:21:44.030Z,30.87
2023-04-16T08:24:12.335Z,29.00
2023-04-16T08:26:40.534Z,27.37
2023-04-16T08:29:10.313Z,27.67
2023-04-16T08:31:38.850Z,28.67
2023-04-16T08:34:07.178Z,28.13
2023-04-16T08:36:35.556Z,26.00
2023-04-16T08:39:03.783Z,25.70
2023-04-16T08:41:33.778Z,27.27
2023-04-16T08:44:08.389Z,28.03
2023-04-16T08:46:39.241Z,25.07
2023-04-16T08:49:09.348Z,25.07
2023-04-16T08:51:39.560Z,24.33
2023-04-16T08:54:13.306Z,24.77
2023-04-16T08:56:43.289Z,23.70
2023-04-16T08:59:11.888Z,22.97
2023-04-16T09:01:42.098Z,22.37
2023-04-16T09:04:10.843Z,23.73
2023-04-16T09:06:41.425Z,22.10
2023-04-16T09:09:11.910Z,23.30
2023-04-16T09:11:40.459Z,20.10
2023-04-16T09:14:11.808Z,21.10
2023-04-16T09:16:41.970Z,21.53
2023-04-16T09:19:10.462Z,19.63
2023-04-16T09:21:39.334Z,18.07
2023-04-16T09:24:09.201Z,18.07
2023-04-16T09:26:39.692Z,19.33
2023-04-16T09:29:10.486Z,18.57
2023-04-16T09:31:38.874Z,18.07
2023-04-16T09:34:10.138Z,17.57
2023-04-16T09:36:38.434Z,16.67
2023-04-16T09:39:19.412Z,24.43
2023-04-16T09:41:48.054Z,18.87
2023-04-16T09:44:16.208Z,17.60
2023-04-16T09:46:44.667Z,17.63
2023-04-16T09:49:16.106Z,17.27
2023-04-16T09:51:45.036Z,15.40
2023-04-16T09:54:15.641Z,16.43
2023-04-16T09:56:45.166Z,16.60
2023-04-16T09:59:18.551Z,16.30
2023-04-16T10:01:47.458Z,16.13
2023-04-16T10:04:17.392Z,16.93
2023-04-16T10:06:48.456Z,16.67
2023-04-16T10:09:19.662Z,16.47
2023-04-16T10:11:49.794Z,16.30
2023-04-16T10:14:17.903Z,15.53
2023-04-16T10:16:46.377Z,16.00
2023-04-16T10:19:16.467Z,16.63
2023-04-16T10:21:44.708Z,14.93
2023-04-16T10:24:16.553Z,14.90
2023-04-16T10:26:46.094Z,16.10
2023-04-16T10:29:17.167Z,16.00
2023-04-16T10:31:49.109Z,15.30
2023-04-16T10:34:20.737Z,14.53
2023-04-16T10:36:50.720Z,15.10
2023-04-16T10:39:21.426Z,13.63
2023-04-16T10:41:49.650Z,13.57
2023-04-16T10:44:21.239Z,15.50
2023-04-16T10:46:50.765Z,14.13
2023-04-16T10:49:21.632Z,14.30
2023-04-16T10:51:57.182Z,13.30
2023-04-16T10:54:29.626Z,15.17
2023-04-16T10:56:58.919Z,13.83
2023-04-16T10:59:31.113Z,14.90
2023-04-16T11:02:01.638Z,13.17
2023-04-16T11:04:36.231Z,12.50
2023-04-16T11:07:14.000Z,12.93
2023-04-16T11:09:53.870Z,13.00
2023-04-16T11:12:23.571Z,12.20
2023-04-16T11:14:56.288Z,13.87
2023-04-16T11:17:24.544Z,13.47
2023-04-16T11:19:54.057Z,15.07
2023-04-16T11:22:22.319Z,14.67
2023-04-16T11:24:56.192Z,13.83
2023-04-16T11:27:24.883Z,13.50
2023-04-16T11:30:00.853Z,16.50
2023-04-16T11:32:31.996Z,13.57
2023-04-16T11:35:03.641Z,13.57
2023-04-16T11:37:36.076Z,13.97
2023-04-16T11:40:06.796Z,15.90
2023-04-16T11:42:37.186Z,15.50
2023-04-16T11:45:06.403Z,14.37
2023-04-16T11:47:45.801Z,14.17
2023-04-16T11:50:23.399Z,13.37
2023-04-16T11:52:52.509Z,15.03
2023-04-16T11:55:22.965Z,14.87
2023-04-16T11:57:52.374Z,15.63
2023-04-16T12:00:24.926Z,14.90
2023-04-16T12:02:55.375Z,15.20
2023-04-16T12:05:34.064Z,14.40
2023-04-16T12:08:03.924Z,12.83
2023-04-16T12:10:36.700Z,16.77
2023-04-16T12:13:13.269Z,13.40
2023-04-16T12:15:49.361Z,14.40
2023-04-16T12:18:22.440Z,13.43
2023-04-16T12:20:52.075Z,12.67
2023-04-16T12:23:27.354Z,13.63
2023-04-16T12:25:56.283Z,12.03
2023-04-16T12:28:32.109Z,13.43
2023-04-16T12:31:01.135Z,13.23
2023-04-16T12:33:29.914Z,13.00
2023-04-16T12:35:59.859Z,12.77
2023-04-16T12:38:28.907Z,14.20
2023-04-16T12:40:58.433Z,12.03
2023-04-16T12:43:27.025Z,13.37
2023-04-16T12:45:55.339Z,12.20
2023-04-16T12:48:23.712Z,15.43
2023-04-16T12:50:55.017Z,11.40
2023-04-16T12:53:24.869Z,11.60
2023-04-16T12:55:53.299Z,13.33
2023-04-16T12:58:21.636Z,12.13
2023-04-16T13:00:50.315Z,10.83
2023-04-16T13:03:18.919Z,11.10
2023-04-16T13:05:47.367Z,11.60
2023-04-16T13:08:16.530Z,11.67
2023-04-16T13:10:46.468Z,14.27
2023-04-16T13:13:16.495Z,11.93
2023-04-16T13:15:45.157Z,13.57
2023-04-16T13:18:13.696Z,12.13
2023-04-16T13:20:42.096Z,10.77
2023-04-16T13:23:10.545Z,13.17
2023-04-16T13:25:38.972Z,13.73
2023-04-16T13:28:08.850Z,46.80
2023-04-16T13:30:37.315Z,12.20
2023-04-16T13:33:05.958Z,9.73
2023-04-16T13:35:34.756Z,10.43
2023-04-16T13:38:03.241Z,9.30
2023-04-16T13:40:31.928Z,12.07
2023-04-16T13:43:00.367Z,10.13
2023-04-16T13:45:30.257Z,11.13
2023-04-16T13:47:58.799Z,14.37
2023-04-16T13:50:27.071Z,11.87
2023-04-16T13:52:55.321Z,9.80
2023-04-16T13:55:23.752Z,9.03
2023-04-16T13:57:53.319Z,9.00
2023-04-16T14:00:21.777Z,9.57
2023-04-16T14:02:51.602Z,10.43
2023-04-16T14:05:20.642Z,11.00
2023-04-16T14:07:48.814Z,12.70
2023-04-16T14:10:17.168Z,9.60
2023-04-16T14:12:47.878Z,10.13
2023-04-16T14:15:16.127Z,8.97
2023-04-16T14:17:44.658Z,10.07
2023-04-16T14:20:16.605Z,8.83
2023-04-16T14:22:46.609Z,9.63
2023-04-16T14:25:17.934Z,9.60
2023-04-16T14:27:46.201Z,9.87
2023-04-16T14:30:14.875Z,9.23
2023-04-16T14:32:43.375Z,10.60
2023-04-16T14:35:11.620Z,9.90
2023-04-16T14:37:41.371Z,10.07
2023-04-16T14:40:11.002Z,9.53
2023-04-16T14:42:39.784Z,8.90
2023-04-16T14:45:09.243Z,10.47
2023-04-16T14:47:45.551Z,8.00
2023-04-16T14:50:14.161Z,9.17
2023-04-16T14:52:46.442Z,9.37
2023-04-16T14:55:14.733Z,10.73
2023-04-16T14:57:42.915Z,8.07
2023-04-16T15:00:13.628Z,11.73
2023-04-16T15:02:42.048Z,9.57
2023-04-16T15:05:10.920Z,8.87
2023-04-16T15:07:39.088Z,11.93
2023-04-16T15:10:10.799Z,9.67
2023-04-16T15:12:39.150Z,10.30
2023-04-16T15:15:08.762Z,10.67
2023-04-16T15:17:37.033Z,10.53
2023-04-16T15:20:08.167Z,10.33
2023-04-16T15:22:36.623Z,10.10
2023-04-16T15:25:05.165Z,9.80
2023-04-16T15:27:37.726Z,11.27
2023-04-16T15:30:06.511Z,8.70
2023-04-16T15:32:34.685Z,9.97
2023-04-16T15:35:04.869Z,9.87
2023-04-16T15:37:35.369Z,10.80
2023-04-16T15:40:05.424Z,10.50
2023-04-16T15:42:33.616Z,10.03
2023-04-16T15:45:03.573Z,9.27
2023-04-16T15:47:31.770Z,8.83
2023-04-16T15:49:59.939Z,12.27
2023-04-16T15:52:28.769Z,11.23
2023-04-16T15:54:57.026Z,9.43
2023-04-16T15:57:25.240Z,9.67
2023-04-16T16:00:06.437Z,9.60
2023-04-16T16:02:38.190Z,9.13
2023-04-16T16:05:07.641Z,10.07
2023-04-16T16:07:36.222Z,11.57
2023-04-16T16:10:07.990Z,13.87
2023-04-16T16:12:36.659Z,10.23
2023-04-16T16:15:06.441Z,11.53
2023-04-16T16:17:36.106Z,13.97
2023-04-16T16:20:05.136Z,12.23
2023-04-16T16:22:33.455Z,11.83
2023-04-16T16:25:04.237Z,11.23
2023-04-16T16:27:32.388Z,15.50
2023-04-16T16:30:01.828Z,16.43
2023-04-16T16:32:32.484Z,14.80
2023-04-16T16:35:02.053Z,14.37
2023-04-16T16:37:30.549Z,12.13
2023-04-16T16:39:58.722Z,20.45
2023-04-16T16:42:27.299Z,18.07
2023-04-16T16:44:57.298Z,12.93
2023-04-16T16:47:26.253Z,9.40
2023-04-16T16:49:54.797Z,11.93
2023-04-16T16:52:26.047Z,12.47
2023-04-16T16:54:56.690Z,9.83
2023-04-16T16:57:25.620Z,9.73
2023-04-16T16:59:54.483Z,14.73
2023-04-16T17:02:23.220Z,12.63
2023-04-16T17:04:52.702Z,15.20
2023-04-16T17:07:20.886Z,13.17
2023-04-16T17:09:50.441Z,13.03
2023-04-16T17:12:18.642Z,11.53
2023-04-16T17:14:50.958Z,11.23
2023-04-16T17:17:19.398Z,11.97
2023-04-16T17:19:47.585Z,10.10
2023-04-16T17:22:15.810Z,11.43
2023-04-16T17:24:44.161Z,10.77
2023-04-16T17:27:15.913Z,11.00
2023-04-16T17:29:44.048Z,15.63
2023-04-16T17:32:12.225Z,12.07
2023-04-16T17:34:40.412Z,12.63
2023-04-16T17:37:08.595Z,10.17
2023-04-16T17:39:37.091Z,11.13
2023-04-16T17:42:05.454Z,13.83
2023-04-16T17:44:35.156Z,9.63
2023-04-16T17:47:03.339Z,10.63
2023-04-16T17:49:31.482Z,14.70
2023-04-16T17:51:59.740Z,12.80
2023-04-16T17:54:27.955Z,10.63
2023-04-16T17:56:56.353Z,11.17
2023-04-16T17:59:24.578Z,11.17
2023-04-16T18:01:54.847Z,10.63
2023-04-16T18:04:23.792Z,11.30
2023-04-16T18:06:52.112Z,12.97
2023-04-16T18:09:22.948Z,10.47
2023-04-16T18:11:54.194Z,33.17
2023-04-16T18:14:25.160Z,17.20
2023-04-16T18:16:54.800Z,12.40
2023-04-16T18:19:23.049Z,11.73
2023-04-16T18:21:51.319Z,15.90
2023-04-16T18:24:19.671Z,21.10
2023-04-16T18:26:48.055Z,17.90
2023-04-16T18:29:17.808Z,17.83
2023-04-16T18:31:46.577Z,13.83
2023-04-16T18:34:16.321Z,18.20
2023-04-16T18:36:44.600Z,15.73
2023-04-16T18:39:12.873Z,14.47
2023-04-16T18:41:42.510Z,14.43
2023-04-16T18:44:11.009Z,14.13
2023-04-16T18:46:39.360Z,19.30
2023-04-16T18:49:07.639Z,14.43
2023-04-16T18:51:37.349Z,15.50
2023-04-16T18:54:05.668Z,14.47
2023-04-16T18:56:33.899Z,15.07
2023-04-16T18:59:02.331Z,18.47
2023-04-16T19:01:30.783Z,14.67
2023-04-16T19:03:59.088Z,18.93
2023-04-16T19:06:29.932Z,17.60
2023-04-16T19:08:59.491Z,17.27
2023-04-16T19:11:27.730Z,14.37
2023-04-16T19:13:57.373Z,14.23
2023-04-16T19:16:25.886Z,13.90
2023-04-16T19:18:54.122Z,16.93
2023-04-16T19:21:24.632Z,15.37
2023-04-16T19:23:52.816Z,17.53
2023-04-16T19:26:22.382Z,14.70
2023-04-16T19:28:50.589Z,15.33
2023-04-16T19:31:21.493Z,15.13
2023-04-16T19:33:49.764Z,16.03
2023-04-16T19:36:17.974Z,13.43
2023-04-16T19:38:46.238Z,15.53
2023-04-16T19:41:16.810Z,13.57
2023-04-16T19:43:46.426Z,17.33
2023-04-16T19:46:15.506Z,12.43
2023-04-16T19:48:43.830Z,15.63
2023-04-16T19:51:12.058Z,15.33
2023-04-16T19:53:40.762Z,14.03
2023-04-16T19:56:09.161Z,13.53
2023-04-16T19:58:37.483Z,13.73
2023-04-16T20:01:11.560Z,14.13
2023-04-16T20:03:40.012Z,15.47
2023-04-16T20:06:08.253Z,16.73
2023-04-16T20:08:36.582Z,14.67
2023-04-16T20:11:19.800Z,16.80
2023-04-16T20:13:48.341Z,19.10
2023-04-16T20:16:22.807Z,13.40
2023-04-16T20:18:54.114Z,15.00
2023-04-16T20:21:22.769Z,14.77
2023-04-16T20:23:50.938Z,14.83
2023-04-16T20:26:19.343Z,16.83
2023-04-16T20:28:47.755Z,15.83
2023-04-16T20:31:17.405Z,13.93
2023-04-16T20:33:45.616Z,15.03
2023-04-16T20:36:13.820Z,17.03
2023-04-16T20:38:43.676Z,14.53
2023-04-16T20:41:14.536Z,17.63
2023-04-16T20:43:43.051Z,17.90
2023-04-16T20:46:12.524Z,14.63
2023-04-16T20:48:42.117Z,16.57
2023-04-16T20:51:10.566Z,19.00
2023-04-16T20:53:38.831Z,15.80
2023-04-16T20:56:09.152Z,15.50
2023-04-16T20:58:37.500Z,14.67
2023-04-16T21:01:05.992Z,17.60
2023-04-16T21:03:34.403Z,16.03
2023-04-16T21:06:04.584Z,16.23
2023-04-16T21:08:32.772Z,18.90
2023-04-16T21:11:01.332Z,15.27
2023-04-16T21:13:29.521Z,15.93
2023-04-16T21:15:57.893Z,15.77
2023-04-16T21:18:26.254Z,16.43
2023-04-16T21:20:54.501Z,15.53
2023-04-16T21:23:24.031Z,16.73
2023-04-16T21:25:52.230Z,14.50
2023-04-16T21:28:20.450Z,23.90
2023-04-16T21:30:52.248Z,14.50
2023-04-16T21:33:20.461Z,16.37
2023-04-16T21:35:53.045Z,16.27
2023-04-16T21:38:23.043Z,15.87
2023-04-16T21:40:54.001Z,14.87
2023-04-16T21:43:22.355Z,15.57
2023-04-16T21:45:52.949Z,14.50
2023-04-16T21:48:21.225Z,14.90
2023-04-16T21:50:54.974Z,15.00
2023-04-16T21:53:24.781Z,15.83
2023-04-16T21:55:53.231Z,15.27
2023-04-16T21:58:21.583Z,14.47
2023-04-16T22:00:49.821Z,16.73
2023-04-16T22:03:26.269Z,15.23
2023-04-16T22:06:01.030Z,15.30
2023-04-16T22:08:31.230Z,16.10
2023-04-16T22:13:49.477Z,15.17
2023-04-16T22:16:17.770Z,16.03
2023-04-16T22:18:47.491Z,15.53
2023-04-16T22:21:15.629Z,16.07
2023-04-16T22:23:43.838Z,20.40
2023-04-16T22:26:12.859Z,15.53
2023-04-16T22:28:43.313Z,16.27
2023-04-16T22:31:12.856Z,19.07
2023-04-16T22:33:41.023Z,15.90
2023-04-16T22:36:09.749Z,15.93
2023-04-16T22:38:38.956Z,18.23
2023-04-16T22:41:09.169Z,16.33
2023-04-16T22:43:37.327Z,17.47
2023-04-16T22:46:06.838Z,18.60
2023-04-16T22:48:38.690Z,18.40
2023-04-16T22:51:08.867Z,18.10
2023-04-16T22:53:37.107Z,20.87
2023-04-16T22:56:05.431Z,18.43
2023-04-16T22:58:33.574Z,21.17
2023-04-16T23:01:01.858Z,17.60
2023-04-16T23:03:30.731Z,18.23
2023-04-16T23:06:03.596Z,19.13
2023-04-16T23:08:31.705Z,17.77
2023-04-16T23:10:59.915Z,20.10
2023-04-16T23:13:28.055Z,19.17
2023-04-16T23:15:56.198Z,19.33
2023-04-16T23:18:24.524Z,20.23
2023-04-16T23:20:52.960Z,20.63
2023-04-16T23:23:22.488Z,20.20
2023-04-16T23:25:53.372Z,20.83
2023-04-16T23:28:21.682Z,19.37
2023-04-16T23:30:52.780Z,18.80
2023-04-16T23:33:23.427Z,21.47
2023-04-16T23:35:51.612Z,19.23
2023-04-16T23:38:19.869Z,21.30
2023-04-16T23:40:49.419Z,20.37
2023-04-16T23:43:17.574Z,24.07
2023-04-16T23:45:45.832Z,21.03
2023-04-16T23:48:14.058Z,21.60
2023-04-16T23:50:42.161Z,21.03
2023-04-16T23:53:10.317Z,22.80
2023-04-16T23:55:38.540Z,22.47
2023-04-16T23:58:08.434Z,22.07
